Accueil
METAR-TAF:

METAR-TAF

Aéroports :

Yap, Yap Island, Micronésie

Aéroport international de Yap

latitude: 09-29N, longitude: 138-05E, altitude: 28 m

Observation

Le bulletin a été fait il y a 1 heure et 6 minutes, à 10:56 UTC
Vent 4 kt de direction variable
Température 28°C
Humidité 84%
Pression 1008 hPa
Visibilité: 19.3 km
Nuages épars à une hauteur de 1600 ft
Nuages fragmentés à une hauteur de 30000 ft

METAR: PTYA 121056Z VRB04KT 12SM SCT016 BKN300 28/25 A2977 RMK SLP083 T02790254

Heure: 22:02 (12:02 UTC)

Prévision

Le bulletin a été fait il y a 42 minutes, à 11:20 UTC
Prévision valable du 12 à 12 UTC au 13 à 12 UTC
Vent 6 kt de est/sud-est
Visibilité: 10 km
Nuages épars à une hauteur de 1600 ft
Nuages épars à une hauteur de 3500 ft
averses à proximité

TAF: PTYA 121120Z 1212/1312 12006KT P6SM VCSH SCT016 SCT035

Observations et prévisions météorologiques de plus de 4000 aéroports (messages METAR et TAF).

Les stations disponibles sont représentées par des disques jaunes et rouges sur la carte.

Passer la souris dessus pour voir le nom de la station.

Cliquer dessus pour voir les observations et prévisions météorologiques.

Pour changer de carte: cliquez sur les boutons verts avec une croix noire pour zoomer, sur le bouton vert avec un tiret pour effectuer un zoom arrière, ou sur les flèches vertes pour les cartes adjacentes.


METAR-TAF: